sensor_id;sensor_type;location;lat;lon;timestamp;pressure;altitude;pressure_sealevel;temperature;humidity
30875;BME280;17581;43.222;27.924;2024-02-15T00:02:04;100920.88;;;7.04;64.07
30875;BME280;17581;43.222;27.924;2024-02-15T00:04:29;101016.63;;;7.41;64.21
30875;BME280;17581;43.222;27.924;2024-02-15T00:06:57;100931.22;;;6.96;63.86
30875;BME280;17581;43.222;27.924;2024-02-15T00:09:22;100921.34;;;6.82;63.64
30875;BME280;17581;43.222;27.924;2024-02-15T00:11:48;100973.91;;;7.26;64.61
30875;BME280;17581;43.222;27.924;2024-02-15T00:14:13;100994.81;;;7.19;64.38
30875;BME280;17581;43.222;27.924;2024-02-15T00:16:39;100992.25;;;7.32;63.76
30875;BME280;17581;43.222;27.924;2024-02-15T00:19:05;100992.75;;;7.24;64.33
30875;BME280;17581;43.222;27.924;2024-02-15T00:21:32;100990.03;;;7.10;64.12
30875;BME280;17581;43.222;27.924;2024-02-15T00:23:57;100967.50;;;7.00;64.70
30875;BME280;17581;43.222;27.924;2024-02-15T00:26:25;100966.72;;;6.98;64.52
30875;BME280;17581;43.222;27.924;2024-02-15T00:28:51;100973.31;;;7.06;64.79
30875;BME280;17581;43.222;27.924;2024-02-15T00:31:16;100991.09;;;7.22;64.65
30875;BME280;17581;43.222;27.924;2024-02-15T00:33:43;100964.53;;;7.04;64.39
30875;BME280;17581;43.222;27.924;2024-02-15T00:36:10;100950.91;;;7.09;64.49
30875;BME280;17581;43.222;27.924;2024-02-15T00:38:36;101000.66;;;7.26;64.31
30875;BME280;17581;43.222;27.924;2024-02-15T00:41:02;100920.31;;;6.85;64.03
30875;BME280;17581;43.222;27.924;2024-02-15T00:43:28;100982.13;;;7.08;64.78
30875;BME280;17581;43.222;27.924;2024-02-15T00:45:53;100912.28;;;6.71;64.93
30875;BME280;17581;43.222;27.924;2024-02-15T00:48:19;100956.25;;;7.09;64.82
30875;BME280;17581;43.222;27.924;2024-02-15T00:50:45;100954.72;;;7.05;64.63
30875;BME280;17581;43.222;27.924;2024-02-15T00:53:10;100938.09;;;7.00;64.85
30875;BME280;17581;43.222;27.924;2024-02-15T00:55:36;100949.75;;;6.99;64.45
30875;BME280;17581;43.222;27.924;2024-02-15T00:58:02;100917.09;;;6.94;64.62
30875;BME280;17581;43.222;27.924;2024-02-15T01:00:28;100953.94;;;7.17;64.42
30875;BME280;17581;43.222;27.924;2024-02-15T01:02:54;100961.88;;;7.19;64.29
30875;BME280;17581;43.222;27.924;2024-02-15T01:05:20;100930.34;;;7.09;64.43
30875;BME280;17581;43.222;27.924;2024-02-15T01:07:47;100956.50;;;7.19;64.02
30875;BME280;17581;43.222;27.924;2024-02-15T01:10:14;100946.78;;;7.18;64.21
30875;BME280;17581;43.222;27.924;2024-02-15T01:12:40;100881.56;;;6.78;64.48
30875;BME280;17581;43.222;27.924;2024-02-15T01:15:06;100873.03;;;6.71;64.41
30875;BME280;17581;43.222;27.924;2024-02-15T01:17:31;100925.28;;;7.05;64.57
30875;BME280;17581;43.222;27.924;2024-02-15T01:19:57;100855.59;;;6.66;64.56
30875;BME280;17581;43.222;27.924;2024-02-15T01:22:22;100893.41;;;6.88;64.29
30875;BME280;17581;43.222;27.924;2024-02-15T01:24:50;100929.50;;;7.09;64.32
30875;BME280;17581;43.222;27.924;2024-02-15T01:27:16;100942.28;;;7.04;64.47
30875;BME280;17581;43.222;27.924;2024-02-15T01:29:42;100914.41;;;6.94;64.68
30875;BME280;17581;43.222;27.924;2024-02-15T01:32:08;100937.22;;;6.99;64.73
30875;BME280;17581;43.222;27.924;2024-02-15T01:34:33;100922.81;;;6.88;64.80
30875;BME280;17581;43.222;27.924;2024-02-15T01:36:59;100920.78;;;6.91;64.72
30875;BME280;17581;43.222;27.924;2024-02-15T01:39:25;100934.06;;;7.07;64.66
30875;BME280;17581;43.222;27.924;2024-02-15T01:41:51;100948.69;;;7.16;64.34
30875;BME280;17581;43.222;27.924;2024-02-15T01:44:18;100951.28;;;7.17;64.59
30875;BME280;17581;43.222;27.924;2024-02-15T01:46:45;100949.72;;;7.13;64.46
30875;BME280;17581;43.222;27.924;2024-02-15T01:49:13;100931.22;;;7.10;64.68
30875;BME280;17581;43.222;27.924;2024-02-15T01:51:39;100958.34;;;7.18;64.45
30875;BME280;17581;43.222;27.924;2024-02-15T01:54:12;100935.59;;;7.11;64.48
30875;BME280;17581;43.222;27.924;2024-02-15T01:56:38;100874.47;;;6.77;64.49
30875;BME280;17581;43.222;27.924;2024-02-15T01:59:05;100931.09;;;6.97;64.67
30875;BME280;17581;43.222;27.924;2024-02-15T02:01:31;100958.13;;;7.07;64.78
30875;BME280;17581;43.222;27.924;2024-02-15T02:04:00;100924.81;;;6.84;64.85
30875;BME280;17581;43.222;27.924;2024-02-15T02:06:26;100964.28;;;7.09;64.69
30875;BME280;17581;43.222;27.924;2024-02-15T02:08:52;100971.81;;;7.02;64.89
30875;BME280;17581;43.222;27.924;2024-02-15T02:11:22;100972.19;;;6.96;65.00
30875;BME280;17581;43.222;27.924;2024-02-15T02:13:48;100938.44;;;6.80;65.08
30875;BME280;17581;43.222;27.924;2024-02-15T02:16:30;100958.13;;;6.93;65.10
30875;BME280;17581;43.222;27.924;2024-02-15T02:19:01;100950.31;;;6.90;65.05
30875;BME280;17581;43.222;27.924;2024-02-15T02:21:27;100984.56;;;6.97;65.09
30875;BME280;17581;43.222;27.924;2024-02-15T02:23:57;100971.31;;;6.96;65.15
30875;BME280;17581;43.222;27.924;2024-02-15T02:26:24;100923.34;;;6.65;65.09
30875;BME280;17581;43.222;27.924;2024-02-15T02:28:50;100989.28;;;6.94;65.14
30875;BME280;17581;43.222;27.924;2024-02-15T02:31:18;100984.13;;;6.91;65.30
30875;BME280;17581;43.222;27.924;2024-02-15T02:33:54;100954.84;;;6.74;65.23
30875;BME280;17581;43.222;27.924;2024-02-15T02:36:19;100991.34;;;6.89;65.73
30875;BME280;17581;43.222;27.924;2024-02-15T02:38:45;100976.09;;;6.91;65.28
30875;BME280;17581;43.222;27.924;2024-02-15T02:41:11;101011.91;;;7.02;64.90
30875;BME280;17581;43.222;27.924;2024-02-15T02:43:39;100998.63;;;7.01;64.66
30875;BME280;17581;43.222;27.924;2024-02-15T02:46:05;100981.81;;;6.99;65.13
30875;BME280;17581;43.222;27.924;2024-02-15T02:48:31;100992.34;;;7.02;64.96
30875;BME280;17581;43.222;27.924;2024-02-15T02:50:57;100974.06;;;6.94;64.90
30875;BME280;17581;43.222;27.924;2024-02-15T02:53:23;100928.13;;;6.74;64.63
30875;BME280;17581;43.222;27.924;2024-02-15T02:55:49;100982.78;;;6.98;64.89
30875;BME280;17581;43.222;27.924;2024-02-15T02:58:15;100990.03;;;7.10;64.55
30875;BME280;17581;43.222;27.924;2024-02-15T03:00:41;100985.94;;;7.04;64.59
30875;BME280;17581;43.222;27.924;2024-02-15T03:03:07;100980.88;;;7.00;64.75
30875;BME280;17581;43.222;27.924;2024-02-15T03:05:34;100994.63;;;7.08;64.58
30875;BME280;17581;43.222;27.924;2024-02-15T03:08:00;100959.94;;;6.92;64.87
30875;BME280;17581;43.222;27.924;2024-02-15T03:10:26;100994.72;;;7.06;64.51
30875;BME280;17581;43.222;27.924;2024-02-15T03:12:51;100989.47;;;7.05;64.74
30875;BME280;17581;43.222;27.924;2024-02-15T03:15:18;100990.91;;;7.10;64.81
30875;BME280;17581;43.222;27.924;2024-02-15T03:17:46;100987.00;;;7.16;64.59
30875;BME280;17581;43.222;27.924;2024-02-15T03:20:12;100975.16;;;7.06;64.37
30875;BME280;17581;43.222;27.924;2024-02-15T03:22:57;100997.00;;;7.12;64.46
30875;BME280;17581;43.222;27.924;2024-02-15T03:25:24;100934.81;;;6.81;64.66
30875;BME280;17581;43.222;27.924;2024-02-15T03:27:50;100990.91;;;7.10;64.55
30875;BME280;17581;43.222;27.924;2024-02-15T03:30:18;101000.00;;;7.22;64.37
30875;BME280;17581;43.222;27.924;2024-02-15T03:32:45;100980.88;;;7.14;64.53
30875;BME280;17581;43.222;27.924;2024-02-15T03:35:11;100984.13;;;7.19;64.32
30875;BME280;17581;43.222;27.924;2024-02-15T03:37:40;100966.56;;;7.15;63.86
30875;BME280;17581;43.222;27.924;2024-02-15T03:40:07;100994.06;;;7.31;64.21
30875;BME280;17581;43.222;27.924;2024-02-15T03:42:34;100992.19;;;7.33;63.76
30875;BME280;17581;43.222;27.924;2024-02-15T03:45:05;100993.25;;;7.31;64.12
30875;BME280;17581;43.222;27.924;2024-02-15T03:47:34;100997.72;;;7.30;63.90
30875;BME280;17581;43.222;27.924;2024-02-15T03:50:01;100999.41;;;7.31;64.16
30875;BME280;17581;43.222;27.924;2024-02-15T03:52:27;100972.88;;;7.14;63.45
30875;BME280;17581;43.222;27.924;2024-02-15T03:54:55;101006.69;;;7.29;63.67
30875;BME280;17581;43.222;27.924;2024-02-15T03:57:25;100942.16;;;6.91;63.56
30875;BME280;17581;43.222;27.924;2024-02-15T03:59:51;101021.13;;;7.27;63.82
30875;BME280;17581;43.222;27.924;2024-02-15T04:02:19;101013.66;;;7.18;63.92
30875;BME280;17581;43.222;27.924;2024-02-15T04:04:44;100994.34;;;7.12;63.80
30875;BME280;17581;43.222;27.924;2024-02-15T04:07:13;100991.28;;;7.04;63.88
30875;BME280;17581;43.222;27.924;2024-02-15T04:09:40;101012.91;;;7.30;63.84
30875;BME280;17581;43.222;27.924;2024-02-15T04:12:06;101010.50;;;7.25;63.66
30875;BME280;17581;43.222;27.924;2024-02-15T04:14:33;100974.19;;;7.07;63.18
30875;BME280;17581;43.222;27.924;2024-02-15T04:16:59;101054.84;;;7.43;63.06
30875;BME280;17581;43.222;27.924;2024-02-15T04:19:25;100959.88;;;7.08;63.04
30875;BME280;17581;43.222;27.924;2024-02-15T04:21:51;100988.16;;;7.12;62.87
30875;BME280;17581;43.222;27.924;2024-02-15T04:24:16;101034.41;;;7.42;62.60
30875;BME280;17581;43.222;27.924;2024-02-15T04:26:42;100999.63;;;7.14;62.86
30875;BME280;17581;43.222;27.924;2024-02-15T04:29:08;101033.44;;;7.29;63.13
30875;BME280;17581;43.222;27.924;2024-02-15T04:31:37;100974.94;;;6.95;62.55
30875;BME280;17581;43.222;27.924;2024-02-15T04:34:04;100974.19;;;7.07;62.78
30875;BME280;17581;43.222;27.924;2024-02-15T04:36:30;101020.44;;;7.37;63.17
30875;BME280;17581;43.222;27.924;2024-02-15T04:39:00;101030.75;;;7.43;62.29
30875;BME280;17581;43.222;27.924;2024-02-15T04:41:29;101018.75;;;7.36;62.13
30875;BME280;17581;43.222;27.924;2024-02-15T04:43:55;100994.56;;;7.24;62.40
30875;BME280;17581;43.222;27.924;2024-02-15T04:46:20;101027.34;;;7.41;62.63
30875;BME280;17581;43.222;27.924;2024-02-15T04:48:47;100989.78;;;7.29;62.45
30875;BME280;17581;43.222;27.924;2024-02-15T04:51:15;101023.53;;;7.45;62.67
30875;BME280;17581;43.222;27.924;2024-02-15T04:53:42;100976.22;;;7.18;62.25
30875;BME280;17581;43.222;27.924;2024-02-15T04:56:08;101020.81;;;7.31;62.84
30875;BME280;17581;43.222;27.924;2024-02-15T04:58:40;101016.06;;;7.36;62.13
30875;BME280;17581;43.222;27.924;2024-02-15T05:01:16;100969.31;;;6.99;62.62
30875;BME280;17581;43.222;27.924;2024-02-15T05:03:45;101026.19;;;7.31;62.37
30875;BME280;17581;43.222;27.924;2024-02-15T05:06:11;101003.53;;;7.08;62.79
30875;BME280;17581;43.222;27.924;2024-02-15T05:08:40;101045.69;;;7.33;63.00
30875;BME280;17581;43.222;27.924;2024-02-15T05:11:10;101013.06;;;7.12;62.85
30875;BME280;17581;43.222;27.924;2024-02-15T05:13:46;101050.84;;;7.36;63.01
30875;BME280;17581;43.222;27.924;2024-02-15T05:16:12;101048.94;;;7.38;62.78
30875;BME280;17581;43.222;27.924;2024-02-15T05:18:38;101062.22;;;7.40;62.72
30875;BME280;17581;43.222;27.924;2024-02-15T05:21:05;101057.25;;;7.48;62.68
30875;BME280;17581;43.222;27.924;2024-02-15T05:23:37;101045.50;;;7.50;62.22
30875;BME280;17581;43.222;27.924;2024-02-15T05:26:05;101050.38;;;7.58;61.64
30875;BME280;17581;43.222;27.924;2024-02-15T05:28:31;101081.94;;;7.67;61.79
30875;BME280;17581;43.222;27.924;2024-02-15T05:31:14;101049.34;;;7.60;61.42
30875;BME280;17581;43.222;27.924;2024-02-15T05:33:45;101070.38;;;7.66;61.07
30875;BME280;17581;43.222;27.924;2024-02-15T05:36:16;101102.69;;;7.78;61.05
30875;BME280;17581;43.222;27.924;2024-02-15T05:38:49;101068.81;;;7.62;60.76
30875;BME280;17581;43.222;27.924;2024-02-15T05:41:15;101042.22;;;7.31;61.40
30875;BME280;17581;43.222;27.924;2024-02-15T05:43:41;101030.97;;;7.40;61.53
30875;BME280;17581;43.222;27.924;2024-02-15T05:46:08;101102.88;;;7.75;61.07
30875;BME280;17581;43.222;27.924;2024-02-15T05:48:34;101091.59;;;7.70;61.01
30875;BME280;17581;43.222;27.924;2024-02-15T05:51:04;101074.56;;;7.56;61.26
30875;BME280;17581;43.222;27.924;2024-02-15T05:53:30;101072.75;;;7.43;61.39
30875;BME280;17581;43.222;27.924;2024-02-15T05:55:56;101100.00;;;7.63;61.89
30875;BME280;17581;43.222;27.924;2024-02-15T05:58:25;101084.31;;;7.57;61.79
30875;BME280;17581;43.222;27.924;2024-02-15T06:00:50;101095.59;;;7.62;61.47
30875;BME280;17581;43.222;27.924;2024-02-15T06:03:17;101111.00;;;7.73;61.44
30875;BME280;17581;43.222;27.924;2024-02-15T06:05:43;101088.06;;;7.55;61.44
30875;BME280;17581;43.222;27.924;2024-02-15T06:08:10;101098.38;;;7.61;61.13
30875;BME280;17581;43.222;27.924;2024-02-15T06:10:39;101088.31;;;7.64;61.42
30875;BME280;17581;43.222;27.924;2024-02-15T06:13:08;101080.78;;;7.71;61.34
30875;BME280;17581;43.222;27.924;2024-02-15T06:15:36;101120.19;;;7.97;61.35
30875;BME280;17581;43.222;27.924;2024-02-15T06:18:02;101062.69;;;7.75;60.84
30875;BME280;17581;43.222;27.924;2024-02-15T06:20:34;101059.66;;;7.66;60.30
30875;BME280;17581;43.222;27.924;2024-02-15T06:23:00;101113.03;;;7.98;60.13
30875;BME280;17581;43.222;27.924;2024-02-15T06:25:31;101065.56;;;7.72;59.92
30875;BME280;17581;43.222;27.924;2024-02-15T06:27:57;101047.59;;;7.59;60.16
30875;BME280;17581;43.222;27.924;2024-02-15T06:30:28;101094.75;;;7.90;60.16
30875;BME280;17581;43.222;27.924;2024-02-15T06:33:12;101093.09;;;7.74;60.24
30875;BME280;17581;43.222;27.924;2024-02-15T06:36:07;101074.94;;;7.79;60.18
30875;BME280;17581;43.222;27.924;2024-02-15T06:38:53;101145.31;;;8.23;59.79
30875;BME280;17581;43.222;27.924;2024-02-15T06:41:37;101088.91;;;7.84;59.36
30875;BME280;17581;43.222;27.924;2024-02-15T06:44:02;101119.31;;;7.97;59.82
30875;BME280;17581;43.222;27.924;2024-02-15T06:46:28;101094.66;;;7.92;59.99
30875;BME280;17581;43.222;27.924;2024-02-15T06:48:54;101095.97;;;7.99;59.58
30875;BME280;17581;43.222;27.924;2024-02-15T06:51:20;101091.41;;;8.01;60.07
30875;BME280;17581;43.222;27.924;2024-02-15T06:53:45;101147.63;;;8.43;59.69
30875;BME280;17581;43.222;27.924;2024-02-15T06:56:11;101124.38;;;8.30;59.52
30875;BME280;17581;43.222;27.924;2024-02-15T06:58:39;101088.50;;;8.18;59.10
30875;BME280;17581;43.222;27.924;2024-02-15T07:01:06;101139.22;;;8.35;59.39
30875;BME280;17581;43.222;27.924;2024-02-15T07:03:31;101144.09;;;8.43;59.44
30875;BME280;17581;43.222;27.924;2024-02-15T07:06:00;101146.66;;;8.44;59.43
30875;BME280;17581;43.222;27.924;2024-02-15T07:08:28;101064.31;;;8.05;59.23
30875;BME280;17581;43.222;27.924;2024-02-15T07:10:55;101103.72;;;8.32;59.34
30875;BME280;17581;43.222;27.924;2024-02-15T07:13:20;101145.78;;;8.58;59.62
30875;BME280;17581;43.222;27.924;2024-02-15T07:15:46;101107.03;;;8.35;59.26
30875;BME280;17581;43.222;27.924;2024-02-15T07:18:12;101094.78;;;8.45;58.98
30875;BME280;17581;43.222;27.924;2024-02-15T07:20:41;101161.34;;;8.65;58.98
30875;BME280;17581;43.222;27.924;2024-02-15T07:23:07;101123.59;;;8.56;58.93
30875;BME280;17581;43.222;27.924;2024-02-15T07:25:36;101147.13;;;8.77;58.42
30875;BME280;17581;43.222;27.924;2024-02-15T07:28:01;101070.59;;;8.33;58.47
30875;BME280;17581;43.222;27.924;2024-02-15T07:30:27;101024.59;;;8.12;58.86
30875;BME280;17581;43.222;27.924;2024-02-15T07:32:52;101126.88;;;8.73;57.74
30875;BME280;17581;43.222;27.924;2024-02-15T07:35:18;101125.28;;;8.57;58.25
30875;BME280;17581;43.222;27.924;2024-02-15T07:37:54;101139.50;;;8.71;58.47
30875;BME280;17581;43.222;27.924;2024-02-15T07:40:21;101098.59;;;8.55;58.46
30875;BME280;17581;43.222;27.924;2024-02-15T07:42:48;101145.50;;;8.89;58.47
30875;BME280;17581;43.222;27.924;2024-02-15T07:45:14;101061.66;;;8.46;57.74
30875;BME280;17581;43.222;27.924;2024-02-15T07:47:40;101107.78;;;8.78;58.18
30875;BME280;17581;43.222;27.924;2024-02-15T07:50:06;101141.63;;;8.93;58.39
30875;BME280;17581;43.222;27.924;2024-02-15T07:52:34;101052.00;;;8.44;57.93
30875;BME280;17581;43.222;27.924;2024-02-15T07:55:00;101055.69;;;8.55;58.25
30875;BME280;17581;43.222;27.924;2024-02-15T07:57:33;101061.91;;;8.56;57.74
30875;BME280;17581;43.222;27.924;2024-02-15T07:59:58;101054.22;;;8.37;57.80
30875;BME280;17581;43.222;27.924;2024-02-15T08:02:24;101058.59;;;8.38;57.61
30875;BME280;17581;43.222;27.924;2024-02-15T08:04:53;101115.97;;;8.62;58.49
30875;BME280;17581;43.222;27.924;2024-02-15T08:07:19;101110.66;;;8.75;57.59
30875;BME280;17581;43.222;27.924;2024-02-15T08:09:46;101028.78;;;8.30;57.84
30875;BME280;17581;43.222;27.924;2024-02-15T08:12:12;101069.44;;;8.63;57.99
30875;BME280;17581;43.222;27.924;2024-02-15T08:14:37;101114.19;;;8.90;57.77
30875;BME280;17581;43.222;27.924;2024-02-15T08:17:05;101070.34;;;8.77;57.64
30875;BME280;17581;43.222;27.924;2024-02-15T08:19:33;101087.88;;;8.95;57.07
30875;BME280;17581;43.222;27.924;2024-02-15T08:22:05;101062.44;;;8.88;57.32
30875;BME280;17581;43.222;27.924;2024-02-15T08:24:31;101077.06;;;9.09;57.45
30875;BME280;17581;43.222;27.924;2024-02-15T08:26:56;101048.59;;;8.94;56.98
30875;BME280;17581;43.222;27.924;2024-02-15T08:29:25;101064.44;;;9.11;57.34
30875;BME280;17581;43.222;27.924;2024-02-15T08:31:51;101052.69;;;8.99;57.19
30875;BME280;17581;43.222;27.924;2024-02-15T08:34:16;101060.97;;;9.09;57.16
30875;BME280;17581;43.222;27.924;2024-02-15T08:36:44;100980.22;;;8.61;56.81
30875;BME280;17581;43.222;27.924;2024-02-15T08:39:10;101059.91;;;8.99;56.67
30875;BME280;17581;43.222;27.924;2024-02-15T08:41:38;100988.13;;;8.63;56.90
30875;BME280;17581;43.222;27.924;2024-02-15T08:44:05;101052.59;;;9.01;56.85
30875;BME280;17581;43.222;27.924;2024-02-15T08:46:37;101076.44;;;9.18;56.95
30875;BME280;17581;43.222;27.924;2024-02-15T08:49:02;101062.91;;;9.07;57.12
30875;BME280;17581;43.222;27.924;2024-02-15T08:51:29;101062.72;;;9.22;57.08
30875;BME280;17581;43.222;27.924;2024-02-15T08:53:56;101065.94;;;9.27;56.92
30875;BME280;17581;43.222;27.924;2024-02-15T08:56:21;100996.56;;;8.96;56.68
30875;BME280;17581;43.222;27.924;2024-02-15T08:58:48;101009.91;;;9.10;56.57
30875;BME280;17581;43.222;27.924;2024-02-15T09:01:14;100997.03;;;9.15;56.29
30875;BME280;17581;43.222;27.924;2024-02-15T09:03:39;100990.34;;;9.21;56.14
30875;BME280;17581;43.222;27.924;2024-02-15T09:06:05;100993.69;;;9.24;56.28
30875;BME280;17581;43.222;27.924;2024-02-15T09:08:33;101010.22;;;9.31;55.81
30875;BME280;17581;43.222;27.924;2024-02-15T09:10:59;101006.69;;;9.18;55.64
30875;BME280;17581;43.222;27.924;2024-02-15T09:13:25;100904.50;;;8.58;55.96
30875;BME280;17581;43.222;27.924;2024-02-15T09:15:53;100902.34;;;8.63;56.10
30875;BME280;17581;43.222;27.924;2024-02-15T09:18:20;100919.19;;;8.77;56.03
30875;BME280;17581;43.222;27.924;2024-02-15T09:20:48;101002.19;;;9.31;56.18
30875;BME280;17581;43.222;27.924;2024-02-15T09:23:20;100904.50;;;8.70;56.43
30875;BME280;17581;43.222;27.924;2024-02-15T09:25:46;100922.50;;;8.68;55.93
30875;BME280;17581;43.222;27.924;2024-02-15T09:28:15;100926.41;;;8.90;56.36
30875;BME280;17581;43.222;27.924;2024-02-15T09:30:41;100890.22;;;8.57;56.22
30875;BME280;17581;43.222;27.924;2024-02-15T09:33:06;100862.75;;;8.41;56.16
30875;BME280;17581;43.222;27.924;2024-02-15T09:35:33;100933.66;;;8.62;56.34
30875;BME280;17581;43.222;27.924;2024-02-15T09:37:59;100992.31;;;9.19;56.28
30875;BME280;17581;43.222;27.924;2024-02-15T09:40:25;100933.16;;;8.95;56.27
30875;BME280;17581;43.222;27.924;2024-02-15T09:42:54;100923.81;;;9.01;56.25
30875;BME280;17581;43.222;27.924;2024-02-15T09:45:20;100875.31;;;8.79;55.84
30875;BME280;17581;43.222;27.924;2024-02-15T09:47:47;101003.66;;;9.60;55.59
30875;BME280;17581;43.222;27.924;2024-02-15T09:50:16;100920.38;;;9.24;55.22
30875;BME280;17581;43.222;27.924;2024-02-15T09:52:53;100964.44;;;9.58;55.38
30875;BME280;17581;43.222;27.924;2024-02-15T09:55:22;100848.69;;;9.13;55.01
30875;BME280;17581;43.222;27.924;2024-02-15T09:57:50;100868.41;;;9.25;55.33
30875;BME280;17581;43.222;27.924;2024-02-15T10:00:16;100891.84;;;9.59;54.87
30875;BME280;17581;43.222;27.924;2024-02-15T10:02:51;100899.69;;;9.62;54.22
30875;BME280;17581;43.222;27.924;2024-02-15T10:05:21;100860.00;;;9.42;53.94
30875;BME280;17581;43.222;27.924;2024-02-15T10:07:48;100920.28;;;9.74;53.64
30875;BME280;17581;43.222;27.924;2024-02-15T10:10:21;100989.50;;;10.31;53.92
30875;BME280;17581;43.222;27.924;2024-02-15T10:12:51;100864.66;;;9.64;53.79
30875;BME280;17581;43.222;27.924;2024-02-15T10:15:36;100868.66;;;9.58;53.80
30875;BME280;17581;43.222;27.924;2024-02-15T10:18:04;100914.50;;;9.92;53.54
30875;BME280;17581;43.222;27.924;2024-02-15T10:20:31;100904.75;;;9.91;53.62
30875;BME280;17581;43.222;27.924;2024-02-15T10:25:28;100907.44;;;9.91;53.32
30875;BME280;17581;43.222;27.924;2024-02-15T10:28:21;100925.34;;;10.03;53.40
30875;BME280;17581;43.222;27.924;2024-02-15T10:30:49;100935.41;;;10.12;53.65
30875;BME280;17581;43.222;27.924;2024-02-15T10:33:19;100949.06;;;10.09;53.49
30875;BME280;17581;43.222;27.924;2024-02-15T10:35:47;100865.75;;;9.61;53.73
30875;BME280;17581;43.222;27.924;2024-02-15T10:38:14;100878.44;;;9.59;53.72
30875;BME280;17581;43.222;27.924;2024-02-15T10:40:41;100870.19;;;9.73;53.73
30875;BME280;17581;43.222;27.924;2024-02-15T10:43:08;100869.97;;;9.76;53.98
30875;BME280;17581;43.222;27.924;2024-02-15T10:45:38;100930.47;;;10.06;53.67
30875;BME280;17581;43.222;27.924;2024-02-15T10:48:11;100928.59;;;10.19;53.51
30875;BME280;17581;43.222;27.924;2024-02-15T10:50:42;100950.00;;;10.20;53.79
30875;BME280;17581;43.222;27.924;2024-02-15T10:53:21;100958.28;;;10.41;54.12
30875;BME280;17581;43.222;27.924;2024-02-15T10:58:43;100953.06;;;10.51;53.10
30875;BME280;17581;43.222;27.924;2024-02-15T11:01:17;100944.09;;;10.39;53.52
30875;BME280;17581;43.222;27.924;2024-02-15T11:03:55;100971.25;;;10.47;53.74
30875;BME280;17581;43.222;27.924;2024-02-15T11:06:26;100922.13;;;10.45;53.12
30875;BME280;17581;43.222;27.924;2024-02-15T11:08:53;100922.19;;;10.32;53.62
30875;BME280;17581;43.222;27.924;2024-02-15T11:11:20;100958.28;;;10.41;53.34
30875;BME280;17581;43.222;27.924;2024-02-15T11:13:46;100989.97;;;10.72;53.78
30875;BME280;17581;43.222;27.924;2024-02-15T11:16:42;100993.53;;;10.84;53.07
30875;BME280;17581;43.222;27.924;2024-02-15T11:22:08;100924.84;;;10.56;53.40
30875;BME280;17581;43.222;27.924;2024-02-15T11:24:36;100990.28;;;10.91;52.74
30875;BME280;17581;43.222;27.924;2024-02-15T11:27:03;100954.63;;;10.77;52.55
30875;BME280;17581;43.222;27.924;2024-02-15T11:29:52;100934.41;;;10.60;52.91
30875;BME280;17581;43.222;27.924;2024-02-15T11:35:12;100958.78;;;10.81;53.17
30875;BME280;17581;43.222;27.924;2024-02-15T11:40:23;100972.88;;;10.84;53.12
30875;BME280;17581;43.222;27.924;2024-02-15T11:43:36;100947.38;;;10.66;53.10
30875;BME280;17581;43.222;27.924;2024-02-15T11:45:40;100952.06;;;10.75;53.11
30875;BME280;17581;43.222;27.924;2024-02-15T11:48:10;100960.38;;;10.83;53.24
30875;BME280;17581;43.222;27.924;2024-02-15T11:50:37;100952.28;;;10.72;53.11
30875;BME280;17581;43.222;27.924;2024-02-15T11:53:06;100950.47;;;10.84;53.12
30875;BME280;17581;43.222;27.924;2024-02-15T11:55:35;100929.19;;;10.70;53.18
30875;BME280;17581;43.222;27.924;2024-02-15T11:58:02;100947.22;;;10.91;53.22
30875;BME280;17581;43.222;27.924;2024-02-15T12:00:31;100963.72;;;10.98;53.22
30875;BME280;17581;43.222;27.924;2024-02-15T12:03:17;100935.34;;;10.94;53.01
30875;BME280;17581;43.222;27.924;2024-02-15T12:06:02;100954.19;;;10.94;52.65
30875;BME280;17581;43.222;27.924;2024-02-15T12:08:47;100939.88;;;10.93;52.84
30875;BME280;17581;43.222;27.924;2024-02-15T12:11:31;100939.28;;;11.12;52.62
30875;BME280;17581;43.222;27.924;2024-02-15T12:14:16;100968.13;;;11.10;52.72
30875;BME280;17581;43.222;27.924;2024-02-15T12:19:48;100955.53;;;11.11;52.57
30875;BME280;17581;43.222;27.924;2024-02-15T12:22:17;100968.28;;;11.20;52.17
30875;BME280;17581;43.222;27.924;2024-02-15T12:24:55;100956.88;;;11.16;52.03
30875;BME280;17581;43.222;27.924;2024-02-15T12:27:22;100954.34;;;11.15;52.49
30875;BME280;17581;43.222;27.924;2024-02-15T12:29:57;100973.06;;;11.27;52.47
30875;BME280;17581;43.222;27.924;2024-02-15T12:32:27;100968.06;;;11.34;51.96
30875;BME280;17581;43.222;27.924;2024-02-15T12:35:08;100973.31;;;11.35;51.97
30875;BME280;17581;43.222;27.924;2024-02-15T12:37:35;100951.28;;;11.41;52.16
30875;BME280;17581;43.222;27.924;2024-02-15T12:40:16;100961.94;;;11.54;51.81
30875;BME280;17581;43.222;27.924;2024-02-15T12:42:46;100954.34;;;11.48;51.91
30875;BME280;17581;43.222;27.924;2024-02-15T12:45:19;100961.69;;;11.57;51.57
30875;BME280;17581;43.222;27.924;2024-02-15T12:47:50;100960.34;;;11.63;51.53
30875;BME280;17581;43.222;27.924;2024-02-15T12:50:17;100974.94;;;11.71;51.11
30875;BME280;17581;43.222;27.924;2024-02-15T12:52:45;100968.22;;;11.77;51.17
30875;BME280;17581;43.222;27.924;2024-02-15T12:55:17;100973.47;;;11.67;51.05
30875;BME280;17581;43.222;27.924;2024-02-15T12:57:46;100964.78;;;11.75;51.17
30875;BME280;17581;43.222;27.924;2024-02-15T13:00:14;100939.03;;;11.60;51.02
30875;BME280;17581;43.222;27.924;2024-02-15T13:02:47;100974.19;;;11.80;51.21
30875;BME280;17581;43.222;27.924;2024-02-15T13:05:18;100972.25;;;11.82;50.97
30875;BME280;17581;43.222;27.924;2024-02-15T13:07:47;100956.81;;;11.84;50.99
30875;BME280;17581;43.222;27.924;2024-02-15T13:10:12;100963.16;;;11.83;51.14
30875;BME280;17581;43.222;27.924;2024-02-15T13:12:44;100927.41;;;11.59;50.62